Flight Track Log - Related Links

Times and Time Zones

All times are in EDT time to prevent confusion due to time zone crossing. See the SWA2236 flight status page for this flight to view local times or setup timezone preferences in your user account.

Time Position Orientation Groundspeed Altitude Reporting Facility
EDT Latitude Longitude Course Direction KTS MPH feet Rate Location/Type
Mon 08:02:47 AM 42.2075 -83.3697 214° Southwest 156 180 1,200  Level Cleveland Center
Mon 08:04:24 AM 42.1372 -83.4339 214° Southwest 212 244 4,800 2,165 Climbing Cleveland Center
Mon 08:05:25 AM 42.1711 -83.4914 309° West 244 281 6,900 2,452 Climbing Cleveland Center
Mon 08:05:57 AM 42.2014 -83.5347 313° West 264 304 8,600 2,935 Climbing Cleveland Center
Mon 08:06:57 AM 42.2175 -83.6308 283° West 279 321 11,400 1,700 Climbing Cleveland Center
Mon 08:07:57 AM 42.2269 -83.7436 276° West 292 336 12,000 450 Climbing Cleveland Center
Mon 08:08:57 AM 42.2364 -83.8589 276° West 304 350 12,300 850 Climbing Cleveland Center
Mon 08:09:57 AM 42.2456 -83.9744 276° West 309 356 13,700 2,300 Climbing Cleveland Center
Mon 08:10:57 AM 42.2194 -84.0797 252° West 302 348 16,900 2,900 Climbing Cleveland Center
Mon 08:11:57 AM 42.1722 -84.1864 239° Southwest 311 358 19,500 2,350 Climbing Cleveland Center
Mon 08:12:57 AM 42.1319 -84.2764 239° Southwest 324 373 21,600 1,250 Climbing Cleveland Center
Mon 08:13:57 AM 42.0922 -84.4086 248° West 343 395 22,000 238 Climbing Cleveland Center
Mon 08:14:38 AM 42.0683 -84.4819 246° West 351 404 22,000  Level Chicago Center
Mon 08:15:40 AM 42.0147 -84.5925 237° Southwest 355 409 22,000  Level Chicago Center
Mon 08:16:42 AM 41.9533 -84.7225 238° Southwest 355 409 22,000  Level Chicago Center
Mon 08:17:44 AM 41.8961 -84.8403 237° Southwest 372 428 22,000  Level Chicago Center
Mon 08:18:46 AM 41.8397 -84.9553 237° Southwest 372 428 22,000  Level Chicago Center
Mon 08:19:48 AM 41.7864 -85.0656 237° Southwest 357 411 22,000  Level Chicago Center
Mon 08:20:50 AM 41.7375 -85.1664 237° Southwest 330 380 22,000  Level Chicago Center
Mon 08:21:52 AM 41.6456 -85.2347 209° Southwest 345 397 22,000 -339 Level Chicago Center
Mon 08:22:54 AM 41.5444 -85.2089 169° South 362 417 21,300 -726 Descending Chicago Center
Mon 08:23:56 AM 41.4633 -85.2508 201° Southwest 329 379 20,500 -823 Descending Chicago Center
Mon 08:24:58 AM 41.4617 -85.3606 269° West 304 350 19,600 -823 Descending Chicago Center
Mon 08:26:00 AM 41.4717 -85.4722 277° West 301 346 18,800 -774 Descending Chicago Center
Mon 08:27:02 AM 41.4825 -85.5814 278° West 296 341 18,000 -726 Descending Chicago Center
Mon 08:28:04 AM 41.4931 -85.6853 278° West 284 327 17,300 -774 Descending Chicago Center
Mon 08:29:06 AM 41.5031 -85.7944 277° West 291 335 16,400 -629 Descending Chicago Center
Mon 08:30:08 AM 41.5136 -85.9072 277° West 302 348 16,000 -194 Descending Chicago Center
Mon 08:31:10 AM 41.5247 -86.0394 276° West 300 345 16,000 -435 Level Chicago Center
Mon 08:32:12 AM 41.5239 -86.1514 269° West 300 345 15,100 -1,355 Descending Chicago Center
Mon 08:33:14 AM 41.5231 -86.2619 269° West 299 344 13,200 -1,839 Descending Chicago Center
Mon 08:34:16 AM 41.5231 -86.3708 270° West 293 337 11,300 -1,344 Descending Chicago Center
Mon 08:35:19 AM 41.5228 -86.4775 270° West 288 331 10,400 -624 Descending Chicago Center
Mon 08:36:21 AM 41.5214 -86.5836 269° West 285 328 10,000 -194 Descending Chicago Center
Mon 08:37:23 AM 41.5200 -86.7094 269° West 283 326 10,000  Level Chicago Center
Mon 08:38:25 AM 41.5200 -86.8000 270° West 269 310 10,000 -290 Level Chicago Center
Mon 08:39:27 AM 41.5181 -86.8967 268° West 263 303 9,400 -1,016 Descending Chicago Center
Mon 08:40:29 AM 41.5178 -87.0167 270° West 268 308 7,900 -1,258 Descending Chicago Center
Mon 08:41:31 AM 41.5236 -87.1219 274° West 268 308 6,800 -919 Descending Chicago Center
Mon 08:42:33 AM 41.5322 -87.2094 278° West 262 302 6,000 -484 Descending Chicago Center
Mon 08:43:35 AM 41.5417 -87.3044 278° West 260 299 5,800 -435 Descending Chicago Center
Mon 08:44:37 AM 41.5503 -87.3989 277° West 259 298 5,100 -484 Descending Chicago Center
Mon 08:45:39 AM 41.5889 -87.4817 302° West 222 255 4,800 -48 Descending Chicago Center
Mon 08:46:41 AM 41.6278 -87.5328 316° Northwest 199 229 5,000 -145 Climbing Chicago Center
Mon 08:47:43 AM 41.6578 -87.5753 313° West 165 190 4,500 -629 Descending Chicago Center
Mon 08:48:45 AM 41.6878 -87.6164 314° West 158 182 3,700 -919 Descending Chicago Center
Mon 08:49:47 AM 41.7169 -87.6575 314° West 154 177 2,600 -1,065 Descending Chicago Center
Mon 08:50:49 AM 41.7511 -87.7061 313° West 154 177 1,500 -774 Descending Chicago Center
Mon 08:51:51 AM 41.7781 -87.7425 315° West 145 167 1,000 -484 Descending Chicago Center
Mon 08:53:00 AM 41.7833 -87.7500 334° Northwest  Level FlightAware Approximate

Login

Don't have an account? Register now (free) for customized features, flight alerts, and more!